MIDDLE PEAK CA US current weather conditions

sailwx.info

Wind from 301 at 4 knots gusting 14

Air temperature 22.8° C
Dewpoint -0.1° C

Last reported at 2019-Jul-22 04:36 UTC.
Time now 2019-Jul-22 05:25 UTC

Location: N 37°56' W 122°35'.
View on Google Maps.

See reports from other nearby stations

  
Tides and Currents Weather Stations Pressure Air Temp Water Temp Dewpoint Dewpoint Depression Visibility Wind Speed Wind Dir Waves Ship Positions
date/time (UTC)wind fromknots sea level pressurealtimeterstation pressurevisibilityair tempwater tempwave heightnotes
2019-Jul-22 04:36 301 4 gusting 14 22.8
2019-Jul-22 03:36 270 5 gusting 8 22.8
2019-Jul-22 02:36 291 5 gusting 8 25.0
2019-Jul-22 01:36 296 4 gusting 7 26.1
2019-Jul-22 00:36 323 3 gusting 7 26.7
2019-Jul-21 23:36 322 6 gusting 9 27.2
2019-Jul-21 22:36 326 4 gusting 7 27.8
2019-Jul-21 21:36 341 3 gusting 6 26.7
2019-Jul-21 20:36 328 3 gusting 6 25.6
2019-Jul-21 19:36 352 1 gusting 5 26.1
2019-Jul-21 18:36 163 2 gusting 6 26.1
2019-Jul-21 17:36 176 3 gusting 6 25.0
2019-Jul-21 16:36 189 1 gusting 5 23.9
2019-Jul-21 15:36 172 1 gusting 5 23.3
2019-Jul-21 14:36 173 2 gusting 68 21.1
2019-Jul-21 13:36 210 1 gusting 4 19.4
2019-Jul-21 12:36 18.3
2019-Jul-21 11:36 18.9
2019-Jul-21 10:36 306 4 gusting 16 18.3
2019-Jul-21 09:36 293 6 gusting 19 20.0
2019-Jul-21 08:36 302 7 gusting 15 18.9
2019-Jul-21 07:36 301 5 gusting 13 20.6
2019-Jul-21 06:36 306 6 gusting 14 18.3
2019-Jul-21 05:36 298 2 gusting 11 19.4
2019-Jul-21 04:36 294 6 gusting 46 19.4
2019-Jul-21 03:36 256 0 gusting 6 20.0
2019-Jul-21 02:36 318 3 gusting 6 20.6
2019-Jul-21 01:36 325 2 gusting 6 22.8
2019-Jul-21 00:36 305 3 gusting 6 22.2
2019-Jul-20 23:36 239 3 gusting 6 22.2
2019-Jul-20 22:36 331 3 gusting 6 22.8
2019-Jul-20 21:36 327 3 gusting 5 21.7
2019-Jul-20 20:36 022 2 gusting 6 20.0
2019-Jul-20 19:36 268 3 gusting 7 16.1
2019-Jul-20 18:36 244 4 gusting 8 14.4
2019-Jul-20 17:36 196 5 gusting 9 13.9
2019-Jul-20 16:36 204 7 gusting 11 12.2
2019-Jul-20 15:36 201 8 gusting 11 11.1
2019-Jul-20 14:36 322 1 gusting 5 17.8
2019-Jul-20 13:36 300 2 gusting 8 12.8
2019-Jul-20 12:36 222 6 gusting 9 10.6
2019-Jul-20 11:36 313 4 gusting 6 13.9
2019-Jul-20 10:36 325 5 gusting 6 15.0
2019-Jul-20 09:36 311 5 gusting 6 15.0
2019-Jul-20 08:36 285 2 gusting 8 17.2
2019-Jul-20 07:36 267 0 gusting 7 18.3
2019-Jul-20 06:36 305 5 gusting 11 16.7
2019-Jul-20 05:36 308 6 gusting 12 16.1